createdAt,value
2018-11-21T00:01:12.663Z,18.10
2018-11-21T00:03:40.841Z,18.23
2018-11-21T00:06:13.711Z,18.67
2018-11-21T00:08:43.348Z,17.90
2018-11-21T00:11:14.276Z,17.80
2018-11-21T00:13:42.493Z,18.07
2018-11-21T00:16:10.777Z,18.27
2018-11-21T00:19:00.769Z,18.43
2018-11-21T00:21:30.603Z,17.43
2018-11-21T00:24:07.438Z,17.90
2018-11-21T00:26:36.552Z,17.60
2018-11-21T00:29:05.823Z,16.93
2018-11-21T00:31:34.033Z,16.00
2018-11-21T00:34:02.189Z,18.07
2018-11-21T00:36:30.388Z,17.73
2018-11-21T00:38:58.590Z,16.33
2018-11-21T00:41:26.800Z,16.50
2018-11-21T00:46:54.537Z,16.37
2018-11-21T00:49:23.727Z,18.23
2018-11-21T00:52:10.025Z,19.00
2018-11-21T00:55:03.800Z,16.77
2018-11-21T00:57:43.751Z,15.33
2018-11-21T01:00:12.667Z,17.23
2018-11-21T01:02:41.156Z,18.10
2018-11-21T01:05:10.229Z,16.97
2018-11-21T01:07:52.729Z,15.90
2018-11-21T01:10:27.656Z,15.73
2018-11-21T01:13:03.636Z,16.37
2018-11-21T01:15:47.562Z,16.07
2018-11-21T01:18:20.900Z,15.70
2018-11-21T01:20:50.033Z,16.50
2018-11-21T01:23:20.189Z,16.67
2018-11-21T01:25:48.809Z,16.10
2018-11-21T01:28:17.001Z,17.70
2018-11-21T01:30:45.140Z,18.90
2018-11-21T01:33:15.154Z,18.57
2018-11-21T01:36:01.628Z,16.13
2018-11-21T01:38:36.874Z,16.60
2018-11-21T01:44:17.455Z,16.30
2018-11-21T01:46:57.712Z,17.53
2018-11-21T01:49:59.856Z,17.23
2018-11-21T01:52:28.048Z,16.83
2018-11-21T01:55:08.435Z,17.17
2018-11-21T01:57:47.047Z,18.00
2018-11-21T02:00:29.840Z,19.00
2018-11-21T02:03:20.852Z,17.80
2018-11-21T02:05:50.574Z,18.37
2018-11-21T02:08:24.686Z,17.67
2018-11-21T02:11:00.310Z,18.93
2018-11-21T02:13:33.449Z,17.97
2018-11-21T02:16:12.458Z,18.57
2018-11-21T02:18:55.384Z,18.60
2018-11-21T02:21:51.368Z,18.77
2018-11-21T02:24:22.242Z,18.07
2018-11-21T02:26:55.639Z,19.97
2018-11-21T02:29:34.296Z,19.87
2018-11-21T02:32:03.247Z,20.97
2018-11-21T02:34:38.751Z,19.63
2018-11-21T02:37:19.700Z,21.67
2018-11-21T02:39:50.615Z,20.10
2018-11-21T02:42:19.133Z,20.50
2018-11-21T02:44:47.309Z,19.03
2018-11-21T02:47:16.485Z,20.67
2018-11-21T02:49:44.671Z,21.70
2018-11-21T02:52:24.514Z,20.50
2018-11-21T02:55:04.733Z,21.80
2018-11-21T02:57:44.739Z,20.07
2018-11-21T03:00:24.620Z,20.73
2018-11-21T04:23:36.547Z,23.60
2018-11-21T04:26:04.799Z,30.57
2018-11-21T04:28:32.951Z,25.43
2018-11-21T04:31:01.658Z,24.20
2018-11-21T04:33:30.091Z,23.00
2018-11-21T04:35:58.245Z,21.50
2018-11-21T04:38:26.447Z,25.13
2018-11-21T04:40:54.596Z,24.67
2018-11-21T04:43:22.778Z,22.10
2018-11-21T04:45:50.983Z,24.03
2018-11-21T04:48:19.153Z,24.67
2018-11-21T04:50:47.323Z,24.57
2018-11-21T04:53:15.524Z,24.93
2018-11-21T04:55:43.704Z,23.80
2018-11-21T04:58:11.891Z,23.73
2018-11-21T05:00:40.104Z,25.23
2018-11-21T05:03:08.582Z,24.43
2018-11-21T05:05:36.768Z,24.77
2018-11-21T05:08:05.098Z,24.10
2018-11-21T05:10:33.285Z,23.53
2018-11-21T05:13:01.462Z,23.77
2018-11-21T05:15:30.629Z,24.80
2018-11-21T05:17:58.773Z,24.27
2018-11-21T05:20:26.980Z,24.60
2018-11-21T05:22:57.590Z,24.93
2018-11-21T05:25:25.807Z,24.97
2018-11-21T05:27:54.017Z,25.17
2018-11-21T05:30:22.167Z,23.73
2018-11-21T05:32:50.320Z,24.33
2018-11-21T05:35:19.434Z,25.73
2018-11-21T05:37:47.729Z,23.73
2018-11-21T05:40:15.912Z,23.27
2018-11-21T05:42:44.074Z,23.13
2018-11-21T05:45:13.106Z,24.57
2018-11-21T05:47:41.285Z,25.53
2018-11-21T05:50:11.244Z,23.60
2018-11-21T05:52:39.485Z,22.53
2018-11-21T05:55:07.660Z,24.07
2018-11-21T05:57:36.214Z,22.87
2018-11-21T06:00:05.822Z,23.73
2018-11-21T06:02:34.013Z,24.93
2018-11-21T06:05:02.169Z,23.33
2018-11-21T06:07:30.363Z,24.40
2018-11-21T06:09:58.580Z,24.27
2018-11-21T06:12:26.747Z,24.47
2018-11-21T06:14:54.914Z,23.73
2018-11-21T06:17:23.061Z,23.43
2018-11-21T06:19:51.201Z,24.43
2018-11-21T06:22:19.403Z,23.93
2018-11-21T06:24:47.616Z,24.83
2018-11-21T06:27:15.780Z,25.60
2018-11-21T06:29:43.962Z,26.73
2018-11-21T06:32:12.159Z,24.77
2018-11-21T06:34:40.281Z,24.23
2018-11-21T06:37:08.468Z,28.80
2018-11-21T06:39:36.633Z,25.83
2018-11-21T06:42:05.075Z,25.57
2018-11-21T06:44:33.408Z,25.33
2018-11-21T06:47:01.559Z,24.87
2018-11-21T06:49:29.715Z,26.73
2018-11-21T06:51:57.908Z,25.27
2018-11-21T06:54:26.048Z,25.33
2018-11-21T06:56:54.186Z,24.53
2018-11-21T06:59:22.427Z,24.30
2018-11-21T07:01:50.606Z,24.07
2018-11-21T07:04:18.762Z,24.27
2018-11-21T07:06:46.955Z,26.13
2018-11-21T07:09:15.126Z,25.57
2018-11-21T07:11:43.298Z,24.70
2018-11-21T07:14:11.494Z,24.97
2018-11-21T07:16:40.443Z,25.27
2018-11-21T07:19:08.665Z,25.20
2018-11-21T07:21:38.110Z,27.20
2018-11-21T11:41:21.604Z,24.70
2018-11-21T19:23:24.457Z,29.33
2018-11-21T19:25:52.700Z,29.30
2018-11-21T19:28:20.872Z,29.60
2018-11-21T19:30:49.397Z,30.93
2018-11-21T19:33:17.582Z,30.93
2018-11-21T19:35:45.942Z,29.87
2018-11-21T19:38:14.088Z,29.50
2018-11-21T19:40:42.329Z,30.97
2018-11-21T19:43:10.608Z,29.33
2018-11-21T19:45:39.218Z,30.77
2018-11-21T19:48:07.394Z,31.60
2018-11-21T19:50:35.682Z,38.98
2018-11-21T19:53:04.011Z,33.53
2018-11-21T19:55:33.110Z,30.97
2018-11-21T19:58:01.349Z,32.53
2018-11-21T20:00:31.005Z,32.03
2018-11-21T20:02:59.243Z,31.87
2018-11-21T20:05:27.431Z,31.00
2018-11-21T20:07:55.706Z,29.63
2018-11-21T20:10:24.170Z,32.20
2018-11-21T20:12:52.361Z,31.87
2018-11-21T20:15:22.202Z,38.20
2018-11-21T20:17:52.083Z,32.10
2018-11-21T20:20:21.033Z,31.33
2018-11-21T20:22:49.870Z,31.07
2018-11-21T20:25:19.356Z,29.87
2018-11-21T20:27:48.498Z,29.47
2018-11-21T20:30:18.559Z,29.87
2018-11-21T20:32:46.750Z,29.13
2018-11-21T20:35:15.467Z,29.57
2018-11-21T20:37:44.209Z,30.00
2018-11-21T20:40:26.644Z,30.57
2018-11-21T20:42:54.787Z,30.17
2018-11-21T20:45:24.371Z,29.27
2018-11-21T20:47:53.638Z,30.40
2018-11-21T20:50:22.274Z,30.43
2018-11-21T20:52:50.761Z,30.03
2018-11-21T20:55:20.373Z,28.93
2018-11-21T20:57:48.606Z,29.70
2018-11-21T21:00:18.248Z,28.50
2018-11-21T21:02:46.635Z,32.03
2018-11-21T21:05:16.311Z,30.97
2018-11-21T21:07:45.011Z,29.90
2018-11-21T21:10:14.681Z,28.83
2018-11-21T21:12:42.946Z,29.83
2018-11-21T21:15:11.481Z,29.53
2018-11-21T21:17:41.469Z,30.17
2018-11-21T21:20:10.788Z,29.90
2018-11-21T21:22:38.994Z,30.00
2018-11-21T21:25:12.936Z,30.13
2018-11-21T21:27:41.323Z,29.63
2018-11-21T21:30:26.160Z,30.33
2018-11-21T21:32:54.383Z,29.20
2018-11-21T21:35:23.545Z,29.97
2018-11-21T21:37:51.772Z,30.67
2018-11-21T21:40:20.733Z,30.13
2018-11-21T21:42:48.962Z,30.57
2018-11-21T21:45:18.878Z,31.47
2018-11-21T21:47:47.405Z,30.90
2018-11-21T21:50:16.780Z,28.60
2018-11-21T21:52:44.938Z,29.40
2018-11-21T21:55:13.836Z,29.03
2018-11-21T21:57:42.028Z,28.90
2018-11-21T22:00:15.190Z,28.97
2018-11-21T22:02:43.386Z,28.60
2018-11-21T22:05:12.032Z,29.43
2018-11-21T22:07:40.229Z,28.63
2018-11-21T22:10:09.261Z,30.77
2018-11-21T22:12:37.438Z,29.07
2018-11-21T22:15:12.823Z,28.87
2018-11-21T22:17:41.643Z,28.50
2018-11-21T22:20:09.825Z,28.37
2018-11-21T22:22:38.014Z,35.95
2018-11-21T22:25:06.275Z,29.03
2018-11-21T22:27:34.470Z,29.50
2018-11-21T22:30:02.670Z,27.87
2018-11-21T22:32:30.891Z,29.83
2018-11-21T22:34:59.099Z,29.47
2018-11-21T22:37:27.273Z,28.63
2018-11-21T22:39:55.522Z,28.60
2018-11-21T22:42:23.699Z,29.57
2018-11-21T22:44:51.877Z,29.30
2018-11-21T22:47:20.703Z,28.40
2018-11-21T22:49:48.915Z,29.10
2018-11-21T22:52:17.100Z,28.77
2018-11-21T22:54:45.413Z,28.87
2018-11-21T22:57:13.698Z,29.03
2018-11-21T22:59:41.856Z,29.87
2018-11-21T23:02:10.077Z,28.37
2018-11-21T23:04:38.254Z,30.93
2018-11-21T23:07:06.808Z,29.27
2018-11-21T23:09:35.006Z,30.13
2018-11-21T23:12:03.201Z,30.43
2018-11-21T23:14:31.376Z,30.07
2018-11-21T23:16:59.596Z,29.90
2018-11-21T23:19:27.733Z,30.33
2018-11-21T23:21:55.988Z,29.47
2018-11-21T23:24:24.204Z,29.37
2018-11-21T23:26:52.480Z,31.30
2018-11-21T23:29:20.663Z,30.60
2018-11-21T23:31:48.886Z,30.63
2018-11-21T23:34:17.062Z,30.57
2018-11-21T23:36:45.253Z,28.87
2018-11-21T23:39:13.502Z,29.90
2018-11-21T23:41:41.694Z,30.00
2018-11-21T23:44:09.917Z,28.67
2018-11-21T23:46:38.405Z,28.77
2018-11-21T23:49:06.629Z,29.87
2018-11-21T23:51:34.852Z,30.40
2018-11-21T23:54:22.481Z,30.70
2018-11-21T23:57:16.164Z,30.13
